Atka, Alaska
Current Conditions -  °F | °C
As of 11:56 PM on Thursday 23 Oct 2014 (Local Time) from PAAK Reporting Station
Overcast Overcast  
Wind Chill:   Ceiling: 10000
Heat Index:   Visibility: 10mi
Dew Point:   Wind: 6mph
Humidity: 81%   Direction: 220°SW
Pressure: 30.04"   Gusts: NA
Location:  52.19°N, 174.2°W
Report Text: PAAK 240856Z 22005KT 10SM OVC100 08/05 A3004 RMK AO1 57003
Loading
Personal Weather Stations






























Interactive Weather Map
Tropical Storm Tracking
New forecast layout! Learn more

10-Day Weather Forecast

Advertisements
Track Severe Weather on mobile